createdAt,value
2022-10-22T00:00:48.298Z,82.22
2022-10-22T00:04:54.883Z,82.18
2022-10-22T00:08:28.415Z,82.11
2022-10-22T00:12:27.182Z,82.13
2022-10-22T00:16:25.527Z,82.09
2022-10-22T00:20:24.485Z,82.18
2022-10-22T00:24:22.882Z,82.11
2022-10-22T00:28:21.285Z,82.09
2022-10-22T00:32:19.915Z,82.08
2022-10-22T00:36:31.887Z,82.08
2022-10-22T00:40:44.146Z,82.03
2022-10-22T00:45:16.042Z,82.00
2022-10-22T00:49:14.455Z,82.06
2022-10-22T00:53:15.186Z,82.05
2022-10-22T00:57:13.872Z,82.14
2022-10-22T01:01:16.828Z,82.17
2022-10-22T01:05:15.493Z,82.17
2022-10-22T01:09:16.438Z,82.28
2022-10-22T01:13:21.793Z,82.20
2022-10-22T01:21:34.801Z,82.15
2022-10-22T01:26:04.482Z,82.10
2022-10-22T01:30:05.643Z,82.02
2022-10-22T01:34:04.632Z,82.05
2022-10-22T01:38:05.186Z,82.13
2022-10-22T01:42:03.638Z,82.12
2022-10-22T01:46:04.038Z,82.16
2022-10-22T01:54:32.681Z,82.30
2022-10-22T01:58:49.548Z,82.43
2022-10-22T02:03:06.762Z,82.61
2022-10-22T02:07:08.156Z,82.81
2022-10-22T02:11:06.742Z,82.83
2022-10-22T02:15:05.543Z,83.09
2022-10-22T02:19:24.640Z,83.32
2022-10-22T02:23:36.637Z,83.51
2022-10-22T02:27:43.868Z,83.56
2022-10-22T02:31:43.966Z,83.66
2022-10-22T02:35:42.999Z,83.92
2022-10-22T02:39:41.638Z,84.09
2022-10-22T02:43:42.020Z,84.20
2022-10-22T02:47:39.998Z,84.19
2022-10-22T02:51:38.323Z,84.03
2022-10-22T02:55:36.881Z,83.92
2022-10-22T02:59:35.059Z,83.73
2022-10-22T03:03:33.518Z,83.74
2022-10-22T03:07:31.459Z,83.73
2022-10-22T03:11:29.380Z,83.69
2022-10-22T03:19:25.986Z,83.52
2022-10-22T03:23:24.166Z,83.60
2022-10-22T03:27:22.557Z,83.79
2022-10-22T03:31:21.178Z,83.94
2022-10-22T03:35:20.103Z,83.82
2022-10-22T03:39:19.456Z,83.80
2022-10-22T03:43:18.097Z,84.12
2022-10-22T03:47:16.121Z,84.11
2022-10-22T03:51:14.297Z,84.26
2022-10-22T03:55:12.418Z,84.07
2022-10-22T03:59:10.599Z,84.04
2022-10-22T04:03:08.821Z,83.97
2022-10-22T04:07:07.418Z,83.88
2022-10-22T04:11:06.658Z,83.86
2022-10-22T04:15:05.054Z,83.81
2022-10-22T04:19:04.218Z,83.83
2022-10-22T04:23:02.518Z,83.85
2022-10-22T04:27:00.580Z,83.86
2022-10-22T04:30:58.558Z,83.82
2022-10-22T04:34:56.498Z,83.82
2022-10-22T04:38:55.538Z,83.79
2022-10-22T04:42:53.377Z,83.76
2022-10-22T04:46:53.758Z,83.71
2022-10-22T04:50:30.064Z,83.67
2022-10-22T04:54:32.168Z,83.61
2022-10-22T04:58:31.577Z,83.56
2022-10-22T05:02:38.716Z,83.51
2022-10-22T05:06:44.736Z,83.47
2022-10-22T05:10:18.807Z,83.45
2022-10-22T05:14:25.023Z,83.44
2022-10-22T05:18:37.903Z,83.41
2022-10-22T05:22:38.968Z,83.33
2022-10-22T05:27:03.792Z,83.28
2022-10-22T05:30:39.104Z,83.25
2022-10-22T05:34:51.114Z,83.22
2022-10-22T05:38:50.181Z,83.15
2022-10-22T05:42:49.612Z,83.11
2022-10-22T05:46:48.471Z,83.09
2022-10-22T05:50:50.928Z,83.07
2022-10-22T05:54:48.638Z,83.07
2022-10-22T05:58:47.325Z,83.09
2022-10-22T06:02:49.357Z,83.11
2022-10-22T06:06:51.680Z,83.17
2022-10-22T06:10:58.310Z,83.29
2022-10-22T06:14:56.617Z,83.34
2022-10-22T06:18:55.000Z,83.12
2022-10-22T06:22:53.197Z,82.98
2022-10-22T06:26:52.290Z,83.02
2022-10-22T06:30:50.508Z,83.10
2022-10-22T06:34:50.792Z,83.14
2022-10-22T06:38:52.569Z,83.03
2022-10-22T06:42:51.555Z,83.07
2022-10-22T06:46:52.434Z,83.08
2022-10-22T06:51:05.253Z,83.09
2022-10-22T06:55:03.973Z,83.14
2022-10-22T06:59:03.346Z,83.15
2022-10-22T07:03:01.757Z,83.16
2022-10-22T07:06:59.923Z,83.16
2022-10-22T07:11:06.176Z,83.16
2022-10-22T07:15:18.853Z,83.15
2022-10-22T07:19:17.218Z,83.18
2022-10-22T07:23:15.718Z,83.18
2022-10-22T07:27:13.880Z,83.19
2022-10-22T07:31:13.783Z,83.15
2022-10-22T07:35:12.213Z,83.10
2022-10-22T07:39:12.841Z,83.18
2022-10-22T07:42:47.998Z,83.20
2022-10-22T07:47:00.055Z,83.19
2022-10-22T07:50:58.709Z,83.14
2022-10-22T07:55:11.197Z,83.08
2022-10-22T07:59:09.086Z,83.06
2022-10-22T08:03:07.300Z,83.05
2022-10-22T08:07:08.576Z,83.03
2022-10-22T08:11:10.221Z,83.00
2022-10-22T08:15:08.956Z,83.01
2022-10-22T08:19:21.524Z,83.01
2022-10-22T08:23:24.402Z,83.03
2022-10-22T08:27:40.371Z,83.06
2022-10-22T08:31:46.696Z,83.03
2022-10-22T08:35:17.696Z,83.02
2022-10-22T08:39:16.122Z,83.05
2022-10-22T08:43:14.791Z,83.03
2022-10-22T08:47:25.842Z,83.06
2022-10-22T08:51:25.924Z,83.09
2022-10-22T08:55:26.240Z,83.05
2022-10-22T08:59:06.350Z,82.95
2022-10-22T09:03:16.684Z,82.93
2022-10-22T09:07:14.983Z,82.95
2022-10-22T09:15:28.136Z,82.90
2022-10-22T09:19:36.886Z,82.83
2022-10-22T09:23:56.689Z,82.75
2022-10-22T09:28:27.547Z,82.61
2022-10-22T09:31:46.559Z,82.49
2022-10-22T09:35:48.181Z,82.37
2022-10-22T09:39:47.555Z,82.27
2022-10-22T09:43:49.262Z,82.16
2022-10-22T09:48:01.533Z,82.08
2022-10-22T09:52:01.319Z,82.02
2022-10-22T09:56:01.130Z,81.90
2022-10-22T10:00:00.122Z,81.80
2022-10-22T10:04:09.402Z,81.73
2022-10-22T10:08:13.445Z,81.68
2022-10-22T10:12:31.063Z,81.61
2022-10-22T10:16:28.903Z,81.67
2022-10-22T10:20:46.621Z,81.78
2022-10-22T10:25:01.414Z,81.82
2022-10-22T10:29:02.173Z,81.75
2022-10-22T10:33:00.664Z,81.74
2022-10-22T10:37:19.616Z,81.75
2022-10-22T10:41:53.139Z,81.70
2022-10-22T10:46:10.011Z,81.60
2022-10-22T10:50:27.062Z,81.57
2022-10-22T10:54:43.130Z,81.49
2022-10-22T10:58:59.920Z,81.44
2022-10-22T11:03:16.755Z,81.42
2022-10-22T11:07:30.376Z,81.37
2022-10-22T11:11:55.656Z,81.35
2022-10-22T11:16:13.204Z,81.35
2022-10-22T11:20:20.245Z,81.38
2022-10-22T11:24:31.205Z,81.43
2022-10-22T11:28:49.128Z,81.50
2022-10-22T11:32:52.063Z,81.55
2022-10-22T11:36:51.163Z,81.57
2022-10-22T11:41:07.645Z,81.60
2022-10-22T11:45:26.002Z,81.68
2022-10-22T11:49:26.383Z,81.70
2022-10-22T11:53:39.074Z,81.76
2022-10-22T11:57:52.676Z,81.81
2022-10-22T12:04:19.807Z,82.07
2022-10-22T12:08:26.340Z,82.21
2022-10-22T12:12:25.218Z,82.14
2022-10-22T12:16:37.663Z,82.21
2022-10-22T12:20:53.466Z,82.12
2022-10-22T12:25:35.442Z,82.05
2022-10-22T12:29:39.446Z,82.17
2022-10-22T12:33:59.211Z,82.27
2022-10-22T12:38:04.302Z,82.37
2022-10-22T12:42:13.442Z,82.57
2022-10-22T12:45:57.356Z,82.62
2022-10-22T12:49:56.735Z,82.70
2022-10-22T12:54:06.983Z,82.79
2022-10-22T12:58:42.332Z,83.02
2022-10-22T13:02:43.568Z,83.09
2022-10-22T13:06:49.016Z,83.10
2022-10-22T13:11:09.616Z,83.19
2022-10-22T13:15:32.398Z,83.57
2022-10-22T13:18:47.134Z,83.73
2022-10-22T13:23:04.215Z,83.76
2022-10-22T13:27:03.204Z,83.51
2022-10-22T13:31:19.695Z,83.50
2022-10-22T13:35:33.679Z,83.47
2022-10-22T13:39:46.572Z,83.52
2022-10-22T13:43:50.076Z,83.61
2022-10-22T13:47:52.527Z,83.93
2022-10-22T13:51:51.995Z,84.35
2022-10-22T13:55:51.295Z,84.51
2022-10-22T14:00:04.122Z,84.57
2022-10-22T14:04:14.062Z,84.62
2022-10-22T14:08:16.733Z,84.69
2022-10-22T14:12:17.725Z,84.73
2022-10-22T14:16:32.522Z,84.78
2022-10-22T14:20:38.352Z,84.75
2022-10-22T14:24:12.970Z,84.91
2022-10-22T14:28:26.135Z,85.08
2022-10-22T14:32:24.451Z,85.43
2022-10-22T14:36:26.662Z,85.61
2022-10-22T14:40:24.965Z,85.77
2022-10-22T14:44:24.655Z,85.88
2022-10-22T14:48:24.306Z,86.07
2022-10-22T14:52:22.322Z,86.18
2022-10-22T14:56:23.250Z,86.16
2022-10-22T15:00:22.559Z,86.18
2022-10-22T15:04:21.225Z,86.24
2022-10-22T15:08:21.069Z,86.10
2022-10-22T15:12:33.401Z,86.17
2022-10-22T15:16:45.688Z,86.20
2022-10-22T15:20:44.019Z,86.19
2022-10-22T15:24:56.364Z,86.16
2022-10-22T15:28:55.233Z,86.15
2022-10-22T15:33:07.174Z,86.03
2022-10-22T15:37:19.122Z,85.96
2022-10-22T15:41:17.304Z,86.03
2022-10-22T15:45:15.944Z,86.05
2022-10-22T15:49:14.983Z,86.12
2022-10-22T15:53:13.162Z,86.11
2022-10-22T15:57:11.340Z,86.10
2022-10-22T16:01:23.836Z,86.19
2022-10-22T16:05:22.352Z,86.29
2022-10-22T16:09:34.471Z,86.35
2022-10-22T16:13:32.934Z,86.46
2022-10-22T16:17:31.413Z,86.63
2022-10-22T16:21:29.951Z,86.57
2022-10-22T16:25:28.511Z,86.77
2022-10-22T16:29:40.895Z,87.07
2022-10-22T16:33:43.126Z,87.19
2022-10-22T16:37:44.820Z,87.21
2022-10-22T16:41:43.238Z,87.03
2022-10-22T16:45:48.131Z,87.01
2022-10-22T16:49:46.370Z,87.01
2022-10-22T16:53:44.748Z,87.30
2022-10-22T16:57:43.617Z,87.39
2022-10-22T17:05:58.570Z,87.61
2022-10-22T17:09:56.918Z,87.79
2022-10-22T17:13:55.173Z,87.91
2022-10-22T17:17:54.585Z,88.22
2022-10-22T17:21:53.827Z,88.33
2022-10-22T17:25:59.853Z,88.44
2022-10-22T17:29:58.404Z,88.44
2022-10-22T17:34:16.160Z,88.40
2022-10-22T17:38:28.513Z,88.39
2022-10-22T17:42:26.681Z,88.25
2022-10-22T17:46:28.705Z,88.27
2022-10-22T17:50:02.503Z,88.26
2022-10-22T17:54:02.477Z,88.43
2022-10-22T17:58:16.981Z,88.47
2022-10-22T18:02:17.301Z,88.54
2022-10-22T18:06:16.431Z,88.54
2022-10-22T18:10:15.025Z,88.56
2022-10-22T18:14:13.654Z,88.63
2022-10-22T18:18:12.515Z,88.75
2022-10-22T18:22:11.266Z,88.98
2022-10-22T18:26:10.032Z,89.28
2022-10-22T18:30:08.858Z,89.57
2022-10-22T18:34:23.777Z,89.15
2022-10-22T18:38:38.412Z,89.19
2022-10-22T18:42:39.054Z,89.50
2022-10-22T18:46:52.457Z,89.81
2022-10-22T18:51:02.006Z,90.03
2022-10-22T18:55:14.499Z,90.18
2022-10-22T18:59:27.300Z,90.43
2022-10-22T19:03:41.384Z,90.50
2022-10-22T19:07:41.359Z,90.62
2022-10-22T19:11:39.925Z,90.64
2022-10-22T19:15:55.194Z,90.52
2022-10-22T19:19:53.434Z,90.57
2022-10-22T19:23:55.739Z,90.46
2022-10-22T19:27:53.741Z,90.12
2022-10-22T19:31:51.950Z,90.16
2022-10-22T19:36:13.126Z,90.10
2022-10-22T19:40:27.122Z,90.07
2022-10-22T19:44:39.151Z,90.28
2022-10-22T19:48:38.968Z,90.03
2022-10-22T19:52:37.324Z,90.19
2022-10-22T19:56:37.872Z,90.38
2022-10-22T20:00:50.174Z,90.38
2022-10-22T20:04:49.893Z,90.39
2022-10-22T20:09:02.676Z,90.65
2022-10-22T20:13:01.313Z,90.73
2022-10-22T20:17:00.225Z,90.72
2022-10-22T20:20:58.569Z,90.65
2022-10-22T20:24:57.099Z,90.59
2022-10-22T20:29:11.828Z,90.88
2022-10-22T20:33:10.133Z,90.96
2022-10-22T20:37:08.806Z,91.10
2022-10-22T20:41:22.113Z,91.19
2022-10-22T20:45:20.912Z,91.22
2022-10-22T20:49:35.774Z,91.10
2022-10-22T20:53:37.405Z,91.08
2022-10-22T20:57:37.696Z,91.10
2022-10-22T21:01:39.785Z,91.23
2022-10-22T21:05:38.065Z,91.29
2022-10-22T21:09:37.352Z,91.32
2022-10-22T21:13:36.178Z,91.27
2022-10-22T21:17:34.810Z,91.38
2022-10-22T21:21:35.642Z,91.41
2022-10-22T21:25:11.117Z,91.32
2022-10-22T21:29:11.522Z,91.21
2022-10-22T21:33:09.950Z,91.18
2022-10-22T21:37:08.576Z,91.27
2022-10-22T21:41:09.919Z,91.14
2022-10-22T21:45:13.129Z,91.32
2022-10-22T21:49:15.709Z,91.44
2022-10-22T21:53:14.250Z,91.43
2022-10-22T21:57:12.637Z,91.42
2022-10-22T22:01:12.141Z,91.50
2022-10-22T22:05:10.671Z,91.52
2022-10-22T22:09:09.359Z,91.53
2022-10-22T22:13:07.847Z,91.50
2022-10-22T22:17:06.445Z,91.49
2022-10-22T22:21:08.490Z,91.45
2022-10-22T22:25:07.110Z,91.36
2022-10-22T22:29:05.711Z,91.25
2022-10-22T22:33:04.577Z,91.25
2022-10-22T22:37:03.437Z,91.17
2022-10-22T22:41:02.183Z,91.13
2022-10-22T22:45:00.731Z,91.02
2022-10-22T22:48:59.415Z,90.99
2022-10-22T22:52:58.311Z,91.01
2022-10-22T22:56:56.758Z,90.92
2022-10-22T23:00:55.491Z,90.91
2022-10-22T23:04:53.839Z,90.89
2022-10-22T23:08:53.936Z,90.82
2022-10-22T23:12:52.577Z,90.73
2022-10-22T23:16:52.696Z,90.67
2022-10-22T23:20:50.659Z,90.64
2022-10-22T23:24:48.616Z,90.68
2022-10-22T23:28:46.917Z,90.64
2022-10-22T23:32:45.318Z,90.55
2022-10-22T23:36:44.115Z,90.59
2022-10-22T23:40:42.199Z,90.53
2022-10-22T23:44:40.928Z,90.46
2022-10-22T23:48:40.286Z,90.43
2022-10-22T23:52:38.967Z,90.50
